sensor_id;sensor_type;location;lat;lon;timestamp;pressure;altitude;pressure_sealevel;temperature;humidity
51083;BME280;37131;42.694;23.350;2023-01-25T00:01:52;96632.81;;;1.64;94.27
51083;BME280;37131;42.694;23.350;2023-01-25T00:04:19;96626.91;;;1.33;95.15
51083;BME280;37131;42.694;23.350;2023-01-25T00:06:45;96629.78;;;0.89;98.72
51083;BME280;37131;42.694;23.350;2023-01-25T00:09:11;96629.56;;;1.02;99.25
51083;BME280;37131;42.694;23.350;2023-01-25T00:11:36;96632.75;;;1.35;98.47
51083;BME280;37131;42.694;23.350;2023-01-25T00:14:02;96635.69;;;0.59;100.00
51083;BME280;37131;42.694;23.350;2023-01-25T00:16:28;96635.63;;;0.70;100.00
51083;BME280;37131;42.694;23.350;2023-01-25T00:18:53;96630.44;;;0.91;100.00
51083;BME280;37131;42.694;23.350;2023-01-25T00:21:21;96633.31;;;0.98;100.00
51083;BME280;37131;42.694;23.350;2023-01-25T00:23:48;96629.91;;;0.66;100.00
51083;BME280;37131;42.694;23.350;2023-01-25T00:26:13;96612.00;;;0.76;100.00
51083;BME280;37131;42.694;23.350;2023-01-25T00:28:39;96616.59;;;0.73;100.00
51083;BME280;37131;42.694;23.350;2023-01-25T00:31:19;96622.84;;;0.80;100.00
51083;BME280;37131;42.694;23.350;2023-01-25T00:33:50;96625.63;;;0.67;100.00
51083;BME280;37131;42.694;23.350;2023-01-25T00:38:58;96634.69;;;1.12;100.00
51083;BME280;37131;42.694;23.350;2023-01-25T00:41:23;96625.75;;;0.96;100.00
51083;BME280;37131;42.694;23.350;2023-01-25T00:43:49;96613.72;;;0.97;100.00
51083;BME280;37131;42.694;23.350;2023-01-25T00:46:15;96635.72;;;0.38;100.00
51083;BME280;37131;42.694;23.350;2023-01-25T00:48:41;96623.47;;;0.72;100.00
51083;BME280;37131;42.694;23.350;2023-01-25T00:51:06;96630.41;;;0.81;100.00
51083;BME280;37131;42.694;23.350;2023-01-25T00:53:31;96624.09;;;0.95;100.00
51083;BME280;37131;42.694;23.350;2023-01-25T00:55:57;96633.56;;;0.95;100.00
51083;BME280;37131;42.694;23.350;2023-01-25T00:58:22;96632.66;;;0.75;100.00
51083;BME280;37131;42.694;23.350;2023-01-25T01:00:48;96641.69;;;1.00;100.00
51083;BME280;37131;42.694;23.350;2023-01-25T01:03:13;96626.97;;;1.02;98.72
51083;BME280;37131;42.694;23.350;2023-01-25T01:05:38;96630.41;;;0.81;100.00
51083;BME280;37131;42.694;23.350;2023-01-25T01:08:04;96625.25;;;1.12;100.00
51083;BME280;37131;42.694;23.350;2023-01-25T01:10:29;96600.50;;;1.11;99.36
51083;BME280;37131;42.694;23.350;2023-01-25T01:12:55;96628.03;;;1.50;98.19
51083;BME280;37131;42.694;23.350;2023-01-25T01:15:20;96619.06;;;1.25;97.20
51083;BME280;37131;42.694;23.350;2023-01-25T01:17:45;96622.03;;;1.20;98.35
51083;BME280;37131;42.694;23.350;2023-01-25T01:20:12;96620.56;;;1.27;97.22
51083;BME280;37131;42.694;23.350;2023-01-25T01:22:37;96623.41;;;1.34;97.26
51083;BME280;37131;42.694;23.350;2023-01-25T01:25:03;96621.78;;;1.33;95.49
51083;BME280;37131;42.694;23.350;2023-01-25T01:27:28;96618.97;;;1.36;97.10
51083;BME280;37131;42.694;23.350;2023-01-25T01:29:54;96613.56;;;1.58;95.36
51083;BME280;37131;42.694;23.350;2023-01-25T01:32:19;96604.72;;;1.12;96.59
51083;BME280;37131;42.694;23.350;2023-01-25T01:34:45;96606.34;;;1.23;96.90
51083;BME280;37131;42.694;23.350;2023-01-25T01:37:10;96607.63;;;0.98;98.96
51083;BME280;37131;42.694;23.350;2023-01-25T01:39:35;96610.28;;;0.86;98.79
51083;BME280;37131;42.694;23.350;2023-01-25T01:42:01;96612.69;;;0.78;99.52
51083;BME280;37131;42.694;23.350;2023-01-25T01:44:48;96610.34;;;0.96;100.00
51083;BME280;37131;42.694;23.350;2023-01-25T01:47:19;96607.97;;;1.24;97.82
51083;BME280;37131;42.694;23.350;2023-01-25T01:49:54;96600.72;;;1.39;98.29
51083;BME280;37131;42.694;23.350;2023-01-25T01:52:29;96584.84;;;1.24;98.06
51083;BME280;37131;42.694;23.350;2023-01-25T01:55:00;96596.88;;;1.14;99.09
51083;BME280;37131;42.694;23.350;2023-01-25T01:57:41;96597.38;;;1.08;99.65
51083;BME280;37131;42.694;23.350;2023-01-25T02:00:11;96604.56;;;1.14;99.40
51083;BME280;37131;42.694;23.350;2023-01-25T02:02:39;96608.63;;;1.07;99.54
51083;BME280;37131;42.694;23.350;2023-01-25T02:05:09;96603.78;;;1.23;100.00
51083;BME280;37131;42.694;23.350;2023-01-25T02:07:37;96605.13;;;1.17;99.29
51083;BME280;37131;42.694;23.350;2023-01-25T02:10:06;96599.28;;;1.05;99.75
51083;BME280;37131;42.694;23.350;2023-01-25T02:12:32;96584.69;;;1.16;99.79
51083;BME280;37131;42.694;23.350;2023-01-25T02:14:57;96603.75;;;1.13;98.76
51083;BME280;37131;42.694;23.350;2023-01-25T02:17:29;96597.94;;;1.11;97.91
51083;BME280;37131;42.694;23.350;2023-01-25T02:20:03;96596.53;;;0.97;99.82
51083;BME280;37131;42.694;23.350;2023-01-25T02:22:40;96598.75;;;0.71;100.00
51083;BME280;37131;42.694;23.350;2023-01-25T02:25:09;96604.78;;;0.60;100.00
51083;BME280;37131;42.694;23.350;2023-01-25T02:27:41;96604.78;;;0.60;100.00
51083;BME280;37131;42.694;23.350;2023-01-25T02:30:10;96597.72;;;0.83;100.00
51083;BME280;37131;42.694;23.350;2023-01-25T02:32:35;96599.38;;;0.63;100.00
51083;BME280;37131;42.694;23.350;2023-01-25T02:35:00;96603.53;;;0.55;100.00
51083;BME280;37131;42.694;23.350;2023-01-25T02:37:26;96603.03;;;0.61;100.00
51083;BME280;37131;42.694;23.350;2023-01-25T02:39:51;96598.16;;;0.58;100.00
51083;BME280;37131;42.694;23.350;2023-01-25T02:42:17;96600.84;;;0.56;100.00
51083;BME280;37131;42.694;23.350;2023-01-25T02:44:43;96574.88;;;0.80;100.00
51083;BME280;37131;42.694;23.350;2023-01-25T02:47:08;96592.13;;;0.68;100.00
51083;BME280;37131;42.694;23.350;2023-01-25T02:49:35;96591.94;;;0.60;100.00
51083;BME280;37131;42.694;23.350;2023-01-25T02:52:02;96591.00;;;0.61;100.00
51083;BME280;37131;42.694;23.350;2023-01-25T02:54:27;96594.09;;;0.96;100.00
51083;BME280;37131;42.694;23.350;2023-01-25T02:56:53;96575.00;;;0.88;99.79
51083;BME280;37131;42.694;23.350;2023-01-25T02:59:19;96595.41;;;0.80;100.00
51083;BME280;37131;42.694;23.350;2023-01-25T03:01:45;96595.16;;;0.83;100.00
51083;BME280;37131;42.694;23.350;2023-01-25T03:04:10;96595.16;;;0.83;100.00
51083;BME280;37131;42.694;23.350;2023-01-25T03:06:37;96593.09;;;0.77;100.00
51083;BME280;37131;42.694;23.350;2023-01-25T03:09:04;96593.28;;;0.95;100.00
51083;BME280;37131;42.694;23.350;2023-01-25T03:11:30;96596.56;;;1.07;100.00
51083;BME280;37131;42.694;23.350;2023-01-25T03:13:56;96581.53;;;0.93;100.00
51083;BME280;37131;42.694;23.350;2023-01-25T03:16:21;96601.09;;;0.84;99.83
51083;BME280;37131;42.694;23.350;2023-01-25T03:18:47;96594.59;;;1.30;98.75
51083;BME280;37131;42.694;23.350;2023-01-25T03:21:14;96589.31;;;1.42;98.02
51083;BME280;37131;42.694;23.350;2023-01-25T03:23:41;96596.63;;;1.36;97.33
51083;BME280;37131;42.694;23.350;2023-01-25T03:26:19;96594.13;;;1.05;98.61
51083;BME280;37131;42.694;23.350;2023-01-25T03:28:45;96581.94;;;0.98;98.85
51083;BME280;37131;42.694;23.350;2023-01-25T03:31:12;96590.72;;;0.95;99.33
51083;BME280;37131;42.694;23.350;2023-01-25T03:33:39;96594.16;;;1.15;97.98
51083;BME280;37131;42.694;23.350;2023-01-25T03:36:05;96596.47;;;1.18;96.17
51083;BME280;37131;42.694;23.350;2023-01-25T03:38:31;96594.34;;;0.83;98.29
51083;BME280;37131;42.694;23.350;2023-01-25T03:40:57;96598.25;;;1.28;96.19
51083;BME280;37131;42.694;23.350;2023-01-25T03:43:23;96595.03;;;1.45;94.95
51083;BME280;37131;42.694;23.350;2023-01-25T03:45:57;96587.16;;;1.37;96.01
51083;BME280;37131;42.694;23.350;2023-01-25T03:48:23;96591.38;;;1.48;96.28
51083;BME280;37131;42.694;23.350;2023-01-25T03:50:57;96583.53;;;1.49;95.68
51083;BME280;37131;42.694;23.350;2023-01-25T03:53:27;96585.78;;;1.23;97.11
51083;BME280;37131;42.694;23.350;2023-01-25T03:55:58;96583.41;;;0.91;98.88
51083;BME280;37131;42.694;23.350;2023-01-25T03:58:25;96584.38;;;0.99;99.85
51083;BME280;37131;42.694;23.350;2023-01-25T04:00:54;96577.84;;;0.85;100.00
51083;BME280;37131;42.694;23.350;2023-01-25T04:03:20;96587.13;;;0.67;100.00
51083;BME280;37131;42.694;23.350;2023-01-25T04:05:46;96572.63;;;0.97;100.00
51083;BME280;37131;42.694;23.350;2023-01-25T04:08:11;96569.47;;;0.83;100.00
51083;BME280;37131;42.694;23.350;2023-01-25T04:10:37;96577.34;;;1.01;100.00
51083;BME280;37131;42.694;23.350;2023-01-25T04:13:02;96578.72;;;1.05;100.00
51083;BME280;37131;42.694;23.350;2023-01-25T04:15:27;96575.78;;;1.20;100.00
51083;BME280;37131;42.694;23.350;2023-01-25T04:17:53;96567.41;;;1.28;99.93
51083;BME280;37131;42.694;23.350;2023-01-25T04:20:18;96574.03;;;1.30;97.83
51083;BME280;37131;42.694;23.350;2023-01-25T04:22:44;96580.25;;;0.77;100.00
51083;BME280;37131;42.694;23.350;2023-01-25T04:25:09;96574.22;;;0.88;100.00
51083;BME280;37131;42.694;23.350;2023-01-25T04:27:34;96581.72;;;0.70;100.00
51083;BME280;37131;42.694;23.350;2023-01-25T04:30:00;96566.44;;;0.68;100.00
51083;BME280;37131;42.694;23.350;2023-01-25T04:32:25;96574.75;;;0.51;100.00
51083;BME280;37131;42.694;23.350;2023-01-25T04:34:50;96579.44;;;0.77;100.00
51083;BME280;37131;42.694;23.350;2023-01-25T04:37:16;96578.75;;;1.15;100.00
51083;BME280;37131;42.694;23.350;2023-01-25T04:39:41;96581.47;;;1.43;98.91
51083;BME280;37131;42.694;23.350;2023-01-25T04:42:07;96590.44;;;1.58;97.14
51083;BME280;37131;42.694;23.350;2023-01-25T04:44:32;96584.88;;;1.44;96.26
51083;BME280;37131;42.694;23.350;2023-01-25T04:46:58;96506.91;;;0.94;95.89
51083;BME280;37131;42.694;23.350;2023-01-25T04:49:23;96595.28;;;1.42;95.65
51083;BME280;37131;42.694;23.350;2023-01-25T04:51:48;96578.25;;;1.61;93.58
51083;BME280;37131;42.694;23.350;2023-01-25T04:54:14;96531.00;;;1.03;93.58
51083;BME280;37131;42.694;23.350;2023-01-25T04:56:39;96584.75;;;1.65;92.88
51083;BME280;37131;42.694;23.350;2023-01-25T04:59:04;96529.81;;;1.27;92.64
51083;BME280;37131;42.694;23.350;2023-01-25T05:01:30;96581.31;;;1.25;94.04
51083;BME280;37131;42.694;23.350;2023-01-25T05:03:58;96567.84;;;0.82;94.43
51083;BME280;37131;42.694;23.350;2023-01-25T05:06:23;96587.00;;;0.78;97.54
51083;BME280;37131;42.694;23.350;2023-01-25T05:08:49;96581.78;;;0.59;97.86
51083;BME280;37131;42.694;23.350;2023-01-25T05:11:14;96587.31;;;0.85;99.12
51083;BME280;37131;42.694;23.350;2023-01-25T05:13:40;96581.31;;;1.15;97.85
51083;BME280;37131;42.694;23.350;2023-01-25T05:16:05;96584.16;;;1.22;96.32
51083;BME280;37131;42.694;23.350;2023-01-25T05:18:30;96580.91;;;1.10;95.85
51083;BME280;37131;42.694;23.350;2023-01-25T05:20:56;96581.78;;;0.80;97.88
51083;BME280;37131;42.694;23.350;2023-01-25T05:23:21;96575.28;;;0.85;97.95
51083;BME280;37131;42.694;23.350;2023-01-25T05:25:47;96574.03;;;1.30;96.44
51083;BME280;37131;42.694;23.350;2023-01-25T05:28:31;96576.31;;;1.23;95.51
51083;BME280;37131;42.694;23.350;2023-01-25T05:30:56;96571.72;;;1.17;94.67
51083;BME280;37131;42.694;23.350;2023-01-25T05:33:22;96515.50;;;0.64;95.77
51083;BME280;37131;42.694;23.350;2023-01-25T05:35:47;96572.91;;;1.03;97.01
51083;BME280;37131;42.694;23.350;2023-01-25T05:38:13;96580.34;;;1.07;96.57
51083;BME280;37131;42.694;23.350;2023-01-25T05:40:38;96577.16;;;1.34;94.87
51083;BME280;37131;42.694;23.350;2023-01-25T05:43:03;96578.78;;;1.45;93.69
51083;BME280;37131;42.694;23.350;2023-01-25T05:45:29;96582.97;;;0.76;95.86
51083;BME280;37131;42.694;23.350;2023-01-25T05:47:55;96588.97;;;0.65;97.40
51083;BME280;37131;42.694;23.350;2023-01-25T05:50:22;96594.97;;;0.75;99.04
51083;BME280;37131;42.694;23.350;2023-01-25T05:52:48;96589.53;;;1.09;96.37
51083;BME280;37131;42.694;23.350;2023-01-25T05:55:13;96521.28;;;0.56;96.95
51083;BME280;37131;42.694;23.350;2023-01-25T05:57:39;96540.19;;;0.55;96.67
51083;BME280;37131;42.694;23.350;2023-01-25T06:00:05;96591.69;;;1.04;95.15
51083;BME280;37131;42.694;23.350;2023-01-25T06:02:30;96590.16;;;1.42;93.12
51083;BME280;37131;42.694;23.350;2023-01-25T06:04:57;96586.22;;;1.57;91.72
51083;BME280;37131;42.694;23.350;2023-01-25T06:07:22;96595.53;;;1.29;91.86
51083;BME280;37131;42.694;23.350;2023-01-25T06:09:47;96595.00;;;1.26;92.23
51083;BME280;37131;42.694;23.350;2023-01-25T06:12:13;96549.13;;;1.21;90.63
51083;BME280;37131;42.694;23.350;2023-01-25T06:14:38;96586.88;;;1.20;91.95
51083;BME280;37131;42.694;23.350;2023-01-25T06:17:03;96499.22;;;0.13;93.26
51083;BME280;37131;42.694;23.350;2023-01-25T06:19:29;96606.06;;;1.16;93.58
51083;BME280;37131;42.694;23.350;2023-01-25T06:21:54;96562.22;;;0.98;92.36
51083;BME280;37131;42.694;23.350;2023-01-25T06:24:20;96604.47;;;1.35;91.53
51083;BME280;37131;42.694;23.350;2023-01-25T06:26:45;96596.41;;;0.99;91.64
51083;BME280;37131;42.694;23.350;2023-01-25T06:29:10;96479.59;;;0.02;93.04
51083;BME280;37131;42.694;23.350;2023-01-25T06:31:36;96602.38;;;1.09;93.38
51083;BME280;37131;42.694;23.350;2023-01-25T06:34:01;96599.88;;;1.29;91.88
51083;BME280;37131;42.694;23.350;2023-01-25T06:36:30;96551.56;;;1.13;90.64
51083;BME280;37131;42.694;23.350;2023-01-25T06:38:56;96596.78;;;1.54;88.88
51083;BME280;37131;42.694;23.350;2023-01-25T06:41:22;96583.41;;;1.70;88.35
51083;BME280;37131;42.694;23.350;2023-01-25T06:43:49;96595.47;;;1.70;88.92
51083;BME280;37131;42.694;23.350;2023-01-25T06:46:15;96494.81;;;0.56;88.92
51083;BME280;37131;42.694;23.350;2023-01-25T06:48:41;96587.56;;;0.82;93.06
51083;BME280;37131;42.694;23.350;2023-01-25T06:51:11;96491.69;;;0.52;93.30
51083;BME280;37131;42.694;23.350;2023-01-25T06:53:39;96589.81;;;1.06;92.50
51083;BME280;37131;42.694;23.350;2023-01-25T06:56:10;96591.88;;;1.22;93.01
51083;BME280;37131;42.694;23.350;2023-01-25T06:58:36;96597.94;;;1.11;92.61
51083;BME280;37131;42.694;23.350;2023-01-25T07:01:22;96597.72;;;1.44;93.50
51083;BME280;37131;42.694;23.350;2023-01-25T07:03:53;96591.81;;;1.63;90.80
51083;BME280;37131;42.694;23.350;2023-01-25T07:06:19;96600.56;;;1.40;89.95
51083;BME280;37131;42.694;23.350;2023-01-25T07:08:45;96597.56;;;1.35;90.57
51083;BME280;37131;42.694;23.350;2023-01-25T07:11:11;96600.28;;;1.34;90.97
51083;BME280;37131;42.694;23.350;2023-01-25T07:13:42;96581.38;;;1.64;90.47
51083;BME280;37131;42.694;23.350;2023-01-25T07:16:17;96584.72;;;1.26;90.85
51083;BME280;37131;42.694;23.350;2023-01-25T07:18:43;96592.94;;;1.19;92.27
51083;BME280;37131;42.694;23.350;2023-01-25T07:21:14;96589.59;;;1.29;91.31
51083;BME280;37131;42.694;23.350;2023-01-25T07:23:40;96590.41;;;1.49;91.53
51083;BME280;37131;42.694;23.350;2023-01-25T07:26:14;96595.97;;;1.44;90.47
51083;BME280;37131;42.694;23.350;2023-01-25T07:28:41;96598.81;;;1.61;90.30
51083;BME280;37131;42.694;23.350;2023-01-25T07:31:06;96592.47;;;1.65;89.85
51083;BME280;37131;42.694;23.350;2023-01-25T07:33:33;96593.00;;;1.58;88.63
51083;BME280;37131;42.694;23.350;2023-01-25T07:36:03;96601.81;;;1.66;88.63
51083;BME280;37131;42.694;23.350;2023-01-25T07:38:29;96611.97;;;1.67;88.85
51083;BME280;37131;42.694;23.350;2023-01-25T07:40:54;96589.34;;;1.51;88.12
51083;BME280;37131;42.694;23.350;2023-01-25T07:43:20;96606.13;;;1.75;87.86
51083;BME280;37131;42.694;23.350;2023-01-25T07:45:45;96606.53;;;1.51;89.04
51083;BME280;37131;42.694;23.350;2023-01-25T07:48:15;96614.91;;;1.33;90.06
51083;BME280;37131;42.694;23.350;2023-01-25T07:50:40;96611.94;;;1.48;90.78
51083;BME280;37131;42.694;23.350;2023-01-25T07:53:08;96616.03;;;1.70;89.13
51083;BME280;37131;42.694;23.350;2023-01-25T07:55:34;96615.59;;;1.45;88.31
51083;BME280;37131;42.694;23.350;2023-01-25T07:57:59;96615.59;;;1.45;89.27
51083;BME280;37131;42.694;23.350;2023-01-25T08:00:25;96550.19;;;1.09;90.11
51083;BME280;37131;42.694;23.350;2023-01-25T08:02:51;96616.41;;;1.65;88.22
51083;BME280;37131;42.694;23.350;2023-01-25T08:05:17;96610.88;;;1.70;88.22
51083;BME280;37131;42.694;23.350;2023-01-25T08:07:43;96616.94;;;1.49;87.81
51083;BME280;37131;42.694;23.350;2023-01-25T08:10:09;96609.94;;;1.61;88.45
51083;BME280;37131;42.694;23.350;2023-01-25T08:12:34;96600.97;;;1.46;89.26
51083;BME280;37131;42.694;23.350;2023-01-25T08:15:00;96605.47;;;1.03;91.43
51083;BME280;37131;42.694;23.350;2023-01-25T08:17:26;96609.38;;;1.48;90.59
51083;BME280;37131;42.694;23.350;2023-01-25T08:19:58;96583.53;;;1.49;88.91
51083;BME280;37131;42.694;23.350;2023-01-25T08:22:24;96605.97;;;1.47;88.99
51083;BME280;37131;42.694;23.350;2023-01-25T08:24:50;96600.69;;;1.49;89.31
51083;BME280;37131;42.694;23.350;2023-01-25T08:27:16;96608.81;;;1.44;87.49
51083;BME280;37131;42.694;23.350;2023-01-25T08:29:41;96605.81;;;1.29;88.79
51083;BME280;37131;42.694;23.350;2023-01-25T08:32:07;96601.50;;;1.39;90.18
51083;BME280;37131;42.694;23.350;2023-01-25T08:34:33;96597.84;;;1.32;89.63
51083;BME280;37131;42.694;23.350;2023-01-25T08:36:58;96599.81;;;1.09;90.39
51083;BME280;37131;42.694;23.350;2023-01-25T08:39:24;96605.72;;;0.90;91.85
51083;BME280;37131;42.694;23.350;2023-01-25T08:41:50;96593.38;;;1.34;90.50
51083;BME280;37131;42.694;23.350;2023-01-25T08:44:15;96589.06;;;1.74;88.69
51083;BME280;37131;42.694;23.350;2023-01-25T08:46:40;96592.84;;;2.09;87.28
51083;BME280;37131;42.694;23.350;2023-01-25T08:49:06;96593.44;;;1.83;86.32
51083;BME280;37131;42.694;23.350;2023-01-25T08:51:34;96586.38;;;1.56;89.81
51083;BME280;37131;42.694;23.350;2023-01-25T08:54:07;96583.78;;;1.75;89.59
51083;BME280;37131;42.694;23.350;2023-01-25T08:56:35;96587.44;;;1.83;88.77
51083;BME280;37131;42.694;23.350;2023-01-25T08:59:00;96593.53;;;2.01;87.91
51083;BME280;37131;42.694;23.350;2023-01-25T09:01:26;96595.84;;;1.55;89.51
51083;BME280;37131;42.694;23.350;2023-01-25T09:03:53;96598.03;;;1.70;90.80
51083;BME280;37131;42.694;23.350;2023-01-25T09:06:19;96598.50;;;1.34;92.90
51083;BME280;37131;42.694;23.350;2023-01-25T09:08:45;96579.81;;;1.22;94.32
51083;BME280;37131;42.694;23.350;2023-01-25T09:11:21;96596.06;;;1.33;92.96
51083;BME280;37131;42.694;23.350;2023-01-25T09:13:47;96586.22;;;1.57;93.85
51083;BME280;37131;42.694;23.350;2023-01-25T09:16:21;96588.00;;;1.86;91.50
51083;BME280;37131;42.694;23.350;2023-01-25T09:18:52;96584.63;;;1.66;92.75
51083;BME280;37131;42.694;23.350;2023-01-25T09:21:18;96581.50;;;1.92;91.51
51083;BME280;37131;42.694;23.350;2023-01-25T09:23:46;96579.06;;;1.81;91.39
51083;BME280;37131;42.694;23.350;2023-01-25T09:26:13;96572.28;;;1.99;91.08
51083;BME280;37131;42.694;23.350;2023-01-25T09:28:40;96556.59;;;1.83;91.11
51083;BME280;37131;42.694;23.350;2023-01-25T09:31:07;96571.09;;;1.93;90.65
51083;BME280;37131;42.694;23.350;2023-01-25T09:33:34;96563.09;;;1.97;91.38
51083;BME280;37131;42.694;23.350;2023-01-25T09:36:00;96567.69;;;2.03;92.49
51083;BME280;37131;42.694;23.350;2023-01-25T09:38:26;96563.22;;;1.85;92.97
51083;BME280;37131;42.694;23.350;2023-01-25T09:43:43;96559.88;;;1.55;95.24
51083;BME280;37131;42.694;23.350;2023-01-25T09:46:54;96545.16;;;2.24;91.10
51083;BME280;37131;42.694;23.350;2023-01-25T09:55:12;96529.19;;;2.21;90.18
51083;BME280;37131;42.694;23.350;2023-01-25T09:57:38;96525.94;;;2.19;88.61
51083;BME280;37131;42.694;23.350;2023-01-25T10:00:23;96519.72;;;2.49;86.92
51083;BME280;37131;42.694;23.350;2023-01-25T10:03:02;96497.00;;;2.44;86.49
51083;BME280;37131;42.694;23.350;2023-01-25T10:05:33;96508.09;;;2.73;84.20
51083;BME280;37131;42.694;23.350;2023-01-25T10:08:05;96502.84;;;2.37;82.78
51083;BME280;37131;42.694;23.350;2023-01-25T10:10:37;96495.88;;;2.19;86.49
51083;BME280;37131;42.694;23.350;2023-01-25T10:13:03;96496.19;;;2.72;84.59
51083;BME280;37131;42.694;23.350;2023-01-25T10:15:38;96497.75;;;2.83;83.26
51083;BME280;37131;42.694;23.350;2023-01-25T10:20:33;96487.91;;;2.96;81.54
51083;BME280;37131;42.694;23.350;2023-01-25T10:26:24;96467.97;;;3.52;78.80
51083;BME280;37131;42.694;23.350;2023-01-25T10:29:07;96468.84;;;3.61;76.87
51083;BME280;37131;42.694;23.350;2023-01-25T10:31:47;96472.81;;;2.83;77.97
51083;BME280;37131;42.694;23.350;2023-01-25T10:34:25;96475.88;;;3.14;77.84
51083;BME280;37131;42.694;23.350;2023-01-25T10:36:56;96471.97;;;3.10;79.25
51083;BME280;37131;42.694;23.350;2023-01-25T10:39:25;96458.78;;;3.13;78.05
51083;BME280;37131;42.694;23.350;2023-01-25T10:41:58;96456.91;;;2.88;79.50
51083;BME280;37131;42.694;23.350;2023-01-25T10:44:26;96447.94;;;2.92;78.33
51083;BME280;37131;42.694;23.350;2023-01-25T10:47:54;96446.75;;;3.40;78.00
51083;BME280;37131;42.694;23.350;2023-01-25T10:50:01;96444.09;;;3.50;76.42
51083;BME280;37131;42.694;23.350;2023-01-25T10:52:31;96439.59;;;3.52;76.89
51083;BME280;37131;42.694;23.350;2023-01-25T10:55:17;96425.56;;;3.10;76.61
51083;BME280;37131;42.694;23.350;2023-01-25T10:57:44;96439.03;;;3.40;76.70
51083;BME280;37131;42.694;23.350;2023-01-25T11:00:36;96432.19;;;3.57;76.10
51083;BME280;37131;42.694;23.350;2023-01-25T11:03:03;96427.19;;;3.29;77.06
51083;BME280;37131;42.694;23.350;2023-01-25T11:07:55;96431.38;;;3.12;76.97
51083;BME280;37131;42.694;23.350;2023-01-25T11:10:41;96425.16;;;2.51;79.04
51083;BME280;37131;42.694;23.350;2023-01-25T11:15:44;96412.41;;;2.95;79.87
51083;BME280;37131;42.694;23.350;2023-01-25T11:18:20;96411.03;;;3.27;79.14
51083;BME280;37131;42.694;23.350;2023-01-25T11:20:47;96398.34;;;3.52;76.01
51083;BME280;37131;42.694;23.350;2023-01-25T11:23:24;96400.16;;;3.60;74.13
51083;BME280;37131;42.694;23.350;2023-01-25T11:25:50;96398.25;;;3.44;75.76
51083;BME280;37131;42.694;23.350;2023-01-25T11:28:23;96402.69;;;3.07;77.69
51083;BME280;37131;42.694;23.350;2023-01-25T11:30:50;96403.31;;;3.27;76.41
51083;BME280;37131;42.694;23.350;2023-01-25T11:33:18;96405.00;;;3.37;77.11
51083;BME280;37131;42.694;23.350;2023-01-25T11:38:36;96395.22;;;3.22;77.56
51083;BME280;37131;42.694;23.350;2023-01-25T11:41:19;96396.41;;;3.28;76.92
51083;BME280;37131;42.694;23.350;2023-01-25T11:46:54;96374.09;;;3.19;75.64
51083;BME280;37131;42.694;23.350;2023-01-25T11:49:49;96371.66;;;3.17;77.74
51083;BME280;37131;42.694;23.350;2023-01-25T11:57:50;96363.53;;;2.68;79.68
51083;BME280;37131;42.694;23.350;2023-01-25T12:09:51;96358.03;;;2.80;77.31
51083;BME280;37131;42.694;23.350;2023-01-25T12:12:11;96339.72;;;3.36;76.55
51083;BME280;37131;42.694;23.350;2023-01-25T12:22:43;96334.22;;;3.05;77.45
51083;BME280;37131;42.694;23.350;2023-01-25T12:25:22;96339.66;;;3.46;76.76
51083;BME280;37131;42.694;23.350;2023-01-25T12:31:50;96339.75;;;2.74;77.58
51083;BME280;37131;42.694;23.350;2023-01-25T12:33:59;96326.72;;;2.93;77.11
51083;BME280;37131;42.694;23.350;2023-01-25T12:36:34;96329.13;;;2.95;77.81
51083;BME280;37131;42.694;23.350;2023-01-25T12:44:20;96323.66;;;3.16;76.80
51083;BME280;37131;42.694;23.350;2023-01-25T12:46:52;96327.97;;;3.07;77.47
51083;BME280;37131;42.694;23.350;2023-01-25T12:49:33;96262.44;;;2.84;76.99
51083;BME280;37131;42.694;23.350;2023-01-25T12:52:14;96319.78;;;3.12;77.21
51083;BME280;37131;42.694;23.350;2023-01-25T12:54:42;96313.16;;;3.09;76.25
51083;BME280;37131;42.694;23.350;2023-01-25T12:57:17;96317.31;;;3.28;77.09
51083;BME280;37131;42.694;23.350;2023-01-25T13:00:03;96310.03;;;3.50;74.63
51083;BME280;37131;42.694;23.350;2023-01-25T13:02:46;96311.59;;;2.72;78.34
51083;BME280;37131;42.694;23.350;2023-01-25T13:11:15;96297.63;;;3.01;76.25
51083;BME280;37131;42.694;23.350;2023-01-25T13:13:43;96293.78;;;3.05;76.79
51083;BME280;37131;42.694;23.350;2023-01-25T13:16:35;96291.75;;;3.43;75.97
51083;BME280;37131;42.694;23.350;2023-01-25T13:19:02;96286.56;;;3.35;73.52
51083;BME280;37131;42.694;23.350;2023-01-25T13:21:45;96293.34;;;3.10;75.56
51083;BME280;37131;42.694;23.350;2023-01-25T13:24:22;96280.16;;;2.87;76.12
51083;BME280;37131;42.694;23.350;2023-01-25T13:34:56;96279.97;;;3.41;74.43
51083;BME280;37131;42.694;23.350;2023-01-25T13:37:27;96291.97;;;3.50;74.90
51083;BME280;37131;42.694;23.350;2023-01-25T13:43:01;96285.84;;;3.25;75.64
51083;BME280;37131;42.694;23.350;2023-01-25T13:45:29;96286.00;;;3.23;76.93
51083;BME280;37131;42.694;23.350;2023-01-25T13:50:33;96300.22;;;3.27;75.18
51083;BME280;37131;42.694;23.350;2023-01-25T13:53:21;96300.47;;;2.72;77.77
51083;BME280;37131;42.694;23.350;2023-01-25T13:55:52;96298.94;;;3.05;76.89
51083;BME280;37131;42.694;23.350;2023-01-25T13:58:24;96292.47;;;3.01;77.37
51083;BME280;37131;42.694;23.350;2023-01-25T14:01:02;96289.97;;;3.36;76.49
51083;BME280;37131;42.694;23.350;2023-01-25T14:03:41;96299.69;;;2.97;76.73
51083;BME280;37131;42.694;23.350;2023-01-25T14:06:46;96295.25;;;3.08;77.22
51083;BME280;37131;42.694;23.350;2023-01-25T14:09:18;96301.69;;;2.86;78.75
51083;BME280;37131;42.694;23.350;2023-01-25T14:11:54;96296.41;;;2.87;77.46
51083;BME280;37131;42.694;23.350;2023-01-25T14:17:17;96310.22;;;2.86;78.53
51083;BME280;37131;42.694;23.350;2023-01-25T14:19:47;96306.19;;;2.66;78.18
51083;BME280;37131;42.694;23.350;2023-01-25T14:22:25;96302.31;;;2.79;79.61
51083;BME280;37131;42.694;23.350;2023-01-25T14:25:12;96299.50;;;3.17;77.08
51083;BME280;37131;42.694;23.350;2023-01-25T14:28:01;96298.06;;;3.14;76.73
51083;BME280;37131;42.694;23.350;2023-01-25T14:30:34;96281.72;;;3.06;76.48